Time;durP1;ratioP1;P1;durP2;ratioP2;P2;SDS_P1;SDS_P2;PMS_P1;PMS_P2;Temp;Humidity;BMP_temperature;BMP_pressure;BME280_temperature;BME280_humidity;BME280_pressure;Samples;Min_cycle;Max_cycle;Signal;HPM_P1;HPM_P2
2022/10/07 00:01:25;;;;;;;4.30;3.47;;;;;;;;;;5074831;28;20852;-58
2022/10/07 00:03:52;;;;;;;5.60;3.65;;;;;;;;;;5074821;28;20473;-58
2022/10/07 00:06:20;;;;;;;5.43;3.40;;;;;;;;;;5074702;28;20189;-58
2022/10/07 00:08:48;;;;;;;5.63;3.63;;;;;;;;;;5074505;28;20485;-58
2022/10/07 00:11:17;;;;;;;5.25;3.60;;;;;;;;;;5074430;28;20447;-58
2022/10/07 00:13:44;;;;;;;5.57;4.07;;;;;;;;;;5074666;28;20196;-58
2022/10/07 00:16:12;;;;;;;3.87;3.57;;;;;;;;;;5074368;28;20458;-58
2022/10/07 00:18:40;;;;;;;6.27;3.10;;;;;;;;;;5074350;28;20964;-58
2022/10/07 00:21:07;;;;;;;5.90;3.28;;;;;;;;;;5074347;28;20509;-58
2022/10/07 00:23:35;;;;;;;7.87;3.37;;;;;;;;;;5074141;28;20299;-58
2022/10/07 00:26:02;;;;;;;3.87;3.57;;;;;;;;;;5074183;28;20825;-58
2022/10/07 00:28:30;;;;;;;8.07;3.40;;;;;;;;;;5073533;28;20958;-58
2022/10/07 00:30:57;;;;;;;3.43;3.00;;;;;;;;;;5074294;28;20522;-58
2022/10/07 00:33:24;;;;;;;4.40;3.43;;;;;;;;;;5074133;28;20538;-58
2022/10/07 00:35:51;;;;;;;6.72;4.15;;;;;;;;;;5074060;28;20454;-58
2022/10/07 00:38:18;;;;;;;8.67;4.57;;;;;;;;;;5073957;28;20189;-59
2022/10/07 00:40:45;;;;;;;5.23;3.47;;;;;;;;;;5074055;28;20558;-58
2022/10/07 00:43:23;;;;;;;5.00;3.10;;;;;;;;;;5074002;28;20488;-58
2022/10/07 00:45:51;;;;;;;4.63;3.23;;;;;;;;;;5073919;28;20481;-59
2022/10/07 00:48:21;;;;;;;9.07;3.65;;;;;;;;;;5073768;28;20538;-58
2022/10/07 00:50:49;;;;;;;4.82;3.40;;;;;;;;;;5073641;28;20270;-58
2022/10/07 00:53:16;;;;;;;5.00;4.05;;;;;;;;;;5073581;28;20189;-59
2022/10/07 00:55:43;;;;;;;3.43;3.13;;;;;;;;;;5073555;28;20664;-59
2022/10/07 00:58:10;;;;;;;3.50;3.20;;;;;;;;;;5073688;28;20457;-59
2022/10/07 01:00:37;;;;;;;6.40;3.30;;;;;;;;;;5073590;28;20457;-58
2022/10/07 01:03:06;;;;;;;6.23;3.50;;;;;;;;;;5073496;28;20542;-59
2022/10/07 01:05:33;;;;;;;3.90;3.60;;;;;;;;;;5073360;28;20534;-58
2022/10/07 01:08:00;;;;;;;5.82;4.65;;;;;;;;;;5073601;28;20193;-58
2022/10/07 01:10:31;;;;;;;3.90;3.60;;;;;;;;;;5073413;28;20558;-59
2022/10/07 01:13:04;;;;;;;4.95;3.70;;;;;;;;;;5073478;28;20618;-59
2022/10/07 01:15:35;;;;;;;3.63;3.33;;;;;;;;;;5073269;28;20714;-59
2022/10/07 01:18:07;;;;;;;3.97;3.50;;;;;;;;;;5073213;28;20189;-59
2022/10/07 01:20:39;;;;;;;7.57;3.53;;;;;;;;;;5073397;28;20199;-58
2022/10/07 01:23:17;;;;;;;4.20;3.53;;;;;;;;;;5073369;28;20457;-59
2022/10/07 01:25:55;;;;;;;6.27;3.90;;;;;;;;;;5073186;28;20195;-59
2022/10/07 01:28:24;;;;;;;5.60;3.40;;;;;;;;;;5073117;28;20453;-59
2022/10/07 01:30:55;;;;;;;4.60;3.20;;;;;;;;;;5072906;28;21025;-59
2022/10/07 01:33:26;;;;;;;4.10;3.70;;;;;;;;;;5073241;28;20452;-59
2022/10/07 01:35:54;;;;;;;6.53;3.30;;;;;;;;;;5073111;28;20807;-59
2022/10/07 01:38:24;;;;;;;5.15;3.60;;;;;;;;;;5072905;28;20276;-59
2022/10/07 01:40:53;;;;;;;3.80;3.50;;;;;;;;;;5072259;28;20197;-58
2022/10/07 01:43:21;;;;;;;5.13;3.70;;;;;;;;;;5073170;28;20193;-60
2022/10/07 01:45:52;;;;;;;4.40;3.70;;;;;;;;;;5073037;28;20283;-59
2022/10/07 01:48:19;;;;;;;4.50;3.50;;;;;;;;;;5072948;28;20189;-58
2022/10/07 01:50:46;;;;;;;4.13;3.83;;;;;;;;;;5072807;28;20483;-58
2022/10/07 01:53:25;;;;;;;4.03;3.70;;;;;;;;;;5072786;28;20553;-58
2022/10/07 01:56:00;;;;;;;3.67;3.40;;;;;;;;;;5073076;28;20193;-58
2022/10/07 01:58:32;;;;;;;4.53;3.92;;;;;;;;;;5072866;28;20200;-58
2022/10/07 02:01:05;;;;;;;3.80;3.40;;;;;;;;;;5072850;28;20607;-58
2022/10/07 02:03:50;;;;;;;5.43;3.65;;;;;;;;;;5072783;28;20185;-58
2022/10/07 02:06:20;;;;;;;8.38;4.90;;;;;;;;;;5072336;28;20543;-58
2022/10/07 02:08:49;;;;;;;5.55;3.78;;;;;;;;;;5072885;28;20224;-59
2022/10/07 02:11:17;;;;;;;4.80;3.70;;;;;;;;;;5072691;28;20224;-58
2022/10/07 02:13:48;;;;;;;8.30;3.70;;;;;;;;;;5072663;28;20195;-58
2022/10/07 02:16:19;;;;;;;6.28;4.38;;;;;;;;;;5072611;28;20538;-59
2022/10/07 02:18:48;;;;;;;5.35;3.78;;;;;;;;;;5072527;28;20289;-58
2022/10/07 02:21:17;;;;;;;3.83;3.50;;;;;;;;;;5072617;28;20288;-58
2022/10/07 02:23:45;;;;;;;6.68;4.20;;;;;;;;;;5072331;28;20231;-58
2022/10/07 02:26:14;;;;;;;5.22;3.88;;;;;;;;;;5072574;28;20200;-58
2022/10/07 02:28:42;;;;;;;4.47;3.30;;;;;;;;;;5072518;28;20189;-58
2022/10/07 02:31:10;;;;;;;6.43;4.03;;;;;;;;;;5072317;28;20217;-58
2022/10/07 02:33:40;;;;;;;4.60;3.30;;;;;;;;;;5072569;28;20190;-58
2022/10/07 02:36:11;;;;;;;3.55;3.25;;;;;;;;;;5072573;28;20682;-59
2022/10/07 02:38:38;;;;;;;3.50;3.20;;;;;;;;;;5072485;28;20224;-58
2022/10/07 02:41:07;;;;;;;4.88;3.72;;;;;;;;;;5072279;28;20691;-58
2022/10/07 02:43:36;;;;;;;3.35;3.05;;;;;;;;;;5072265;28;20189;-58
2022/10/07 02:46:07;;;;;;;6.43;3.40;;;;;;;;;;5072437;28;20199;-59
2022/10/07 02:48:35;;;;;;;4.00;3.70;;;;;;;;;;5072416;28;20198;-58
2022/10/07 02:51:06;;;;;;;7.38;4.05;;;;;;;;;;5073655;28;20307;-58
2022/10/07 02:53:35;;;;;;;7.47;3.88;;;;;;;;;;5075968;28;20203;-58
2022/10/07 02:56:02;;;;;;;6.82;3.90;;;;;;;;;;5075863;28;20189;-58
2022/10/07 02:58:29;;;;;;;4.28;3.78;;;;;;;;;;5076028;28;20276;-59
2022/10/07 03:00:59;;;;;;;6.25;4.10;;;;;;;;;;5075945;28;20195;-58
2022/10/07 03:03:26;;;;;;;4.60;3.72;;;;;;;;;;5075754;28;20641;-58
2022/10/07 03:05:53;;;;;;;4.15;3.15;;;;;;;;;;5075795;28;20192;-58
2022/10/07 03:08:22;;;;;;;4.40;4.03;;;;;;;;;;5075631;28;20649;-59
2022/10/07 03:10:49;;;;;;;3.83;3.50;;;;;;;;;;5075508;28;20220;-58
2022/10/07 03:13:16;;;;;;;5.28;3.47;;;;;;;;;;5075755;28;20629;-58
2022/10/07 03:15:43;;;;;;;5.25;4.18;;;;;;;;;;5075669;28;20193;-58
2022/10/07 03:18:24;;;;;;;4.28;3.97;;;;;;;;;;5075622;28;20189;-58
2022/10/07 03:20:52;;;;;;;5.22;3.45;;;;;;;;;;5075490;28;20193;-58
2022/10/07 03:23:19;;;;;;;4.93;3.70;;;;;;;;;;5075417;28;20247;-58
2022/10/07 03:25:50;;;;;;;5.97;3.67;;;;;;;;;;5075511;28;20211;-58
2022/10/07 03:28:18;;;;;;;3.90;3.58;;;;;;;;;;5075492;28;20285;-59
2022/10/07 03:30:53;;;;;;;4.30;3.38;;;;;;;;;;5075705;28;20224;-61
2022/10/07 03:33:23;;;;;;;5.50;3.58;;;;;;;;;;5075513;28;20189;-58
2022/10/07 03:35:50;;;;;;;3.75;3.45;;;;;;;;;;5075392;28;20196;-59
2022/10/07 03:38:17;;;;;;;6.32;3.40;;;;;;;;;;5075305;28;20193;-59
2022/10/07 03:40:44;;;;;;;4.68;4.25;;;;;;;;;;5075236;28;20706;-58
2022/10/07 03:43:12;;;;;;;5.50;4.43;;;;;;;;;;5075104;28;20192;-59
2022/10/07 03:45:43;;;;;;;4.50;3.97;;;;;;;;;;5075093;28;20185;-58
2022/10/07 03:48:10;;;;;;;5.18;4.50;;;;;;;;;;5074867;28;20276;-58
2022/10/07 03:50:37;;;;;;;6.40;5.78;;;;;;;;;;5074979;28;20217;-58
2022/10/07 03:53:04;;;;;;;6.00;4.90;;;;;;;;;;5074954;28;20635;-58
2022/10/07 03:55:31;;;;;;;10.50;5.05;;;;;;;;;;5074916;28;20200;-58
2022/10/07 03:57:58;;;;;;;10.00;6.55;;;;;;;;;;5074811;28;20652;-58
2022/10/07 04:00:28;;;;;;;8.13;5.53;;;;;;;;;;5074703;28;20189;-58
2022/10/07 04:02:54;;;;;;;4.95;4.55;;;;;;;;;;5073990;28;20189;-59
2022/10/07 04:05:22;;;;;;;5.30;4.80;;;;;;;;;;5074720;28;20203;-59
2022/10/07 04:07:50;;;;;;;5.53;5.13;;;;;;;;;;5074691;28;20195;-58
2022/10/07 04:10:18;;;;;;;4.63;4.05;;;;;;;;;;5074651;28;20213;-60
2022/10/07 04:12:46;;;;;;;5.75;3.95;;;;;;;;;;5074502;28;20189;-59
2022/10/07 04:15:14;;;;;;;5.28;4.20;;;;;;;;;;5074351;28;20189;-60
2022/10/07 04:17:42;;;;;;;5.70;5.07;;;;;;;;;;5074543;28;20185;-60
2022/10/07 04:20:10;;;;;;;4.18;3.78;;;;;;;;;;5074441;28;20199;-59
2022/10/07 04:22:36;;;;;;;5.93;4.75;;;;;;;;;;5074308;28;20196;-59
2022/10/07 04:27:52;;;;;;;4.78;4.38;;;;;;;;;;5074156;28;20193;-59
2022/10/07 04:30:19;;;;;;;4.70;4.00;;;;;;;;;;5074154;28;20221;-59
2022/10/07 04:32:49;;;;;;;4.10;3.55;;;;;;;;;;5074171;28;20205;-59
2022/10/07 04:35:16;;;;;;;11.02;4.00;;;;;;;;;;5074086;28;20189;-59
2022/10/07 04:37:43;;;;;;;4.93;4.40;;;;;;;;;;5073954;28;20220;-59
2022/10/07 04:40:10;;;;;;;5.95;5.00;;;;;;;;;;5073856;28;20215;-59
2022/10/07 04:45:22;;;;;;;7.28;3.45;;;;;;;;;;5073921;28;20196;-59
2022/10/07 04:47:50;;;;;;;11.48;4.45;;;;;;;;;;5073880;28;20280;-59
2022/10/07 04:50:17;;;;;;;5.03;4.53;;;;;;;;;;5073718;28;20221;-59
2022/10/07 04:52:45;;;;;;;9.70;4.82;;;;;;;;;;5073664;28;20542;-59
2022/10/07 04:55:12;;;;;;;4.65;3.75;;;;;;;;;;5073823;28;20197;-60
2022/10/07 04:57:39;;;;;;;6.70;4.03;;;;;;;;;;5073741;28;20194;-59
2022/10/07 05:00:07;;;;;;;4.07;3.50;;;;;;;;;;5073538;28;20195;-59
2022/10/07 05:02:35;;;;;;;5.15;3.67;;;;;;;;;;5073478;28;20197;-59
2022/10/07 05:05:03;;;;;;;3.80;3.50;;;;;;;;;;5073303;28;20189;-60
2022/10/07 05:07:30;;;;;;;4.72;4.00;;;;;;;;;;5073491;28;20189;-59
2022/10/07 05:09:57;;;;;;;4.32;3.92;;;;;;;;;;5073149;28;20283;-59
2022/10/07 05:12:25;;;;;;;10.25;4.53;;;;;;;;;;5073363;28;20220;-59
2022/10/07 05:14:52;;;;;;;4.85;4.30;;;;;;;;;;5073166;28;20613;-59
2022/10/07 05:17:20;;;;;;;7.93;4.32;;;;;;;;;;5073566;28;20277;-59
2022/10/07 05:19:47;;;;;;;5.68;4.72;;;;;;;;;;5073001;28;20243;-59
2022/10/07 05:22:15;;;;;;;5.40;4.80;;;;;;;;;;5073285;28;20237;-59
2022/10/07 05:24:42;;;;;;;5.70;4.10;;;;;;;;;;5072763;28;20696;-59
2022/10/07 05:27:09;;;;;;;7.40;4.43;;;;;;;;;;5073063;28;20186;-59
2022/10/07 05:29:36;;;;;;;5.45;4.95;;;;;;;;;;5073056;28;20199;-59
2022/10/07 05:32:03;;;;;;;4.93;4.53;;;;;;;;;;5072705;28;20221;-59
2022/10/07 05:34:30;;;;;;;10.55;6.20;;;;;;;;;;5072789;28;20185;-59
2022/10/07 05:36:58;;;;;;;6.18;4.60;;;;;;;;;;5072918;28;20196;-58
2022/10/07 05:39:26;;;;;;;6.47;4.45;;;;;;;;;;5072970;28;20205;-58
2022/10/07 05:41:53;;;;;;;6.60;4.43;;;;;;;;;;5072835;28;20276;-58
2022/10/07 05:44:20;;;;;;;10.05;5.70;;;;;;;;;;5072546;28;20292;-58
2022/10/07 05:46:47;;;;;;;4.00;3.70;;;;;;;;;;5072715;28;20275;-59
2022/10/07 05:49:14;;;;;;;4.43;4.05;;;;;;;;;;5072869;28;20271;-58
2022/10/07 05:51:41;;;;;;;5.15;4.32;;;;;;;;;;5072733;28;20629;-58
2022/10/07 05:54:08;;;;;;;14.90;4.03;;;;;;;;;;5072563;28;20644;-58
2022/10/07 05:56:36;;;;;;;6.85;4.60;;;;;;;;;;5072580;28;20280;-58
2022/10/07 05:59:04;;;;;;;6.90;4.70;;;;;;;;;;5072510;28;20189;-59
2022/10/07 06:01:31;;;;;;;5.30;4.30;;;;;;;;;;5072280;28;20197;-58
2022/10/07 06:03:58;;;;;;;6.25;5.65;;;;;;;;;;5072786;28;20538;-59
2022/10/07 06:06:25;;;;;;;11.40;6.10;;;;;;;;;;5072710;28;20236;-58
2022/10/07 06:08:53;;;;;;;10.00;7.65;;;;;;;;;;5072624;28;20189;-58
2022/10/07 06:14:06;;;;;;;9.15;6.38;;;;;;;;;;5031499;28;20239;-58
2022/10/07 06:16:33;;;;;;;7.30;5.68;;;;;;;;;;5072411;28;20225;-58
2022/10/07 06:19:00;;;;;;;7.82;7.03;;;;;;;;;;5072516;28;20196;-58
2022/10/07 06:21:27;;;;;;;8.40;6.60;;;;;;;;;;5072366;28;20276;-58
2022/10/07 06:23:55;;;;;;;10.63;6.78;;;;;;;;;;5072211;28;20259;-58
2022/10/07 06:26:22;;;;;;;11.02;6.97;;;;;;;;;;5074252;28;20668;-58
2022/10/07 06:28:49;;;;;;;13.40;12.10;;;;;;;;;;5076432;28;20189;-58
2022/10/07 06:31:21;;;;;;;8.88;8.00;;;;;;;;;;5076406;28;20220;-58
2022/10/07 06:33:48;;;;;;;10.52;5.70;;;;;;;;;;5076259;28;20227;-58
2022/10/07 06:36:15;;;;;;;10.40;6.18;;;;;;;;;;5076074;28;20196;-58
2022/10/07 06:38:44;;;;;;;7.22;6.10;;;;;;;;;;5075999;28;20196;-59
2022/10/07 06:41:11;;;;;;;10.35;6.05;;;;;;;;;;5076276;28;20544;-58
2022/10/07 06:43:38;;;;;;;7.97;5.33;;;;;;;;;;5075938;28;20190;-59
2022/10/07 06:46:06;;;;;;;5.20;4.80;;;;;;;;;;5075637;28;21033;-57
2022/10/07 06:48:35;;;;;;;5.70;5.30;;;;;;;;;;5084790;28;20442;-56
2022/10/07 06:51:02;;;;;;;7.93;4.27;;;;;;;;;;5089815;28;20490;-57
2022/10/07 06:53:29;;;;;;;10.70;4.70;;;;;;;;;;5089271;28;20442;-58
2022/10/07 06:55:57;;;;;;;9.40;5.30;;;;;;;;;;5077425;28;20455;-59
2022/10/07 06:58:24;;;;;;;8.20;4.03;;;;;;;;;;5082384;28;20439;-58
2022/10/07 07:00:52;;;;;;;7.50;4.40;;;;;;;;;;5078970;28;20483;-59
2022/10/07 07:03:19;;;;;;;9.47;4.97;;;;;;;;;;5089320;28;20446;-59
2022/10/07 07:05:47;;;;;;;4.10;3.50;;;;;;;;;;5075161;28;20443;-59
2022/10/07 07:08:14;;;;;;;6.70;3.50;;;;;;;;;;5077371;28;20513;-60
2022/10/07 07:10:42;;;;;;;6.80;3.97;;;;;;;;;;5085954;28;20447;-60
2022/10/07 07:13:09;;;;;;;6.33;3.63;;;;;;;;;;5081961;28;20961;-61
2022/10/07 07:15:37;;;;;;;6.50;3.70;;;;;;;;;;5076355;28;20451;-60
2022/10/07 07:18:05;;;;;;;4.80;3.80;;;;;;;;;;5079916;28;20457;-58
2022/10/07 07:20:36;;;;;;;4.73;4.00;;;;;;;;;;5091889;28;20450;-59
2022/10/07 07:23:05;;;;;;;4.20;3.60;;;;;;;;;;5094618;28;20458;-59
2022/10/07 07:25:32;;;;;;;5.10;3.80;;;;;;;;;;5082194;28;20477;-57
2022/10/07 07:28:00;;;;;;;7.13;3.60;;;;;;;;;;5095275;28;20450;-58
2022/10/07 07:30:27;;;;;;;5.33;3.87;;;;;;;;;;5081132;28;20512;-56
2022/10/07 07:32:55;;;;;;;5.60;4.27;;;;;;;;;;5081543;28;20470;-57
2022/10/07 07:35:22;;;;;;;8.27;4.50;;;;;;;;;;5074130;28;20456;-60
2022/10/07 07:37:49;;;;;;;13.60;4.23;;;;;;;;;;5085245;28;20455;-60
2022/10/07 07:40:17;;;;;;;8.00;3.70;;;;;;;;;;5093498;28;20455;-60
2022/10/07 07:42:45;;;;;;;5.60;3.70;;;;;;;;;;5081807;28;20455;-62
2022/10/07 07:45:12;;;;;;;5.87;4.37;;;;;;;;;;5082166;28;20946;-59
2022/10/07 07:47:39;;;;;;;5.63;4.27;;;;;;;;;;5083010;28;20454;-59
2022/10/07 07:50:07;;;;;;;5.63;4.03;;;;;;;;;;5078367;28;20448;-59
2022/10/07 07:52:34;;;;;;;7.57;4.57;;;;;;;;;;5072649;28;20489;-56
2022/10/07 07:55:02;;;;;;;6.77;4.13;;;;;;;;;;5071046;28;20496;-60
2022/10/07 07:57:31;;;;;;;7.00;4.63;;;;;;;;;;5071280;28;20798;-59
2022/10/07 07:59:58;;;;;;;7.40;3.80;;;;;;;;;;5079824;28;20458;-58
2022/10/07 08:02:25;;;;;;;3.63;3.33;;;;;;;;;;5080390;28;20775;-62
2022/10/07 08:04:53;;;;;;;4.23;3.10;;;;;;;;;;5079490;28;20462;-58
2022/10/07 08:07:20;;;;;;;4.27;3.73;;;;;;;;;;5089843;28;20461;-59
2022/10/07 08:09:47;;;;;;;5.90;3.60;;;;;;;;;;5080479;28;20451;-59
2022/10/07 08:12:14;;;;;;;5.57;3.50;;;;;;;;;;5079553;28;20529;-60
2022/10/07 08:14:42;;;;;;;10.23;4.17;;;;;;;;;;5090271;28;20538;-59
2022/10/07 08:17:09;;;;;;;6.13;4.70;;;;;;;;;;5077924;28;20456;-58
2022/10/07 08:19:37;;;;;;;5.47;3.43;;;;;;;;;;5083547;28;20537;-59
2022/10/07 08:22:05;;;;;;;5.83;3.50;;;;;;;;;;5093352;28;20454;-60
2022/10/07 08:24:32;;;;;;;10.93;3.67;;;;;;;;;;5077859;28;20536;-60
2022/10/07 08:26:59;;;;;;;4.37;3.57;;;;;;;;;;5091812;28;20521;-58
2022/10/07 08:29:28;;;;;;;6.20;3.80;;;;;;;;;;5074979;28;20479;-58
2022/10/07 08:31:57;;;;;;;6.23;3.73;;;;;;;;;;5080968;28;20897;-58
2022/10/07 08:34:24;;;;;;;5.43;3.50;;;;;;;;;;5087919;28;20907;-60
2022/10/07 08:36:51;;;;;;;5.03;3.47;;;;;;;;;;5073904;28;20558;-59
2022/10/07 08:39:18;;;;;;;5.97;4.50;;;;;;;;;;5085754;28;20458;-59
2022/10/07 08:41:52;;;;;;;5.83;3.70;;;;;;;;;;5079070;28;20982;-60
2022/10/07 08:44:24;;;;;;;9.20;4.13;;;;;;;;;;5091626;28;20507;-59
2022/10/07 08:46:54;;;;;;;3.97;3.50;;;;;;;;;;5073225;28;20458;-60
2022/10/07 08:49:26;;;;;;;5.27;3.27;;;;;;;;;;5072941;28;20447;-62
2022/10/07 08:51:55;;;;;;;6.27;3.23;;;;;;;;;;5071846;28;20470;-59
2022/10/07 08:54:26;;;;;;;8.13;4.00;;;;;;;;;;5075338;28;20458;-59
2022/10/07 08:56:54;;;;;;;4.03;3.37;;;;;;;;;;5092916;28;20455;-60
2022/10/07 08:59:23;;;;;;;8.40;3.50;;;;;;;;;;5076928;28;20463;-59
2022/10/07 09:01:55;;;;;;;7.70;4.40;;;;;;;;;;5073053;28;20947;-61
2022/10/07 09:04:31;;;;;;;5.73;4.07;;;;;;;;;;5080990;28;20455;-60
2022/10/07 09:07:01;;;;;;;7.33;3.07;;;;;;;;;;5088029;28;20889;-61
2022/10/07 09:09:29;;;;;;;4.50;3.87;;;;;;;;;;5083250;28;20451;-58
2022/10/07 09:11:57;;;;;;;5.50;3.63;;;;;;;;;;5079582;28;20489;-58
2022/10/07 09:14:26;;;;;;;4.93;3.33;;;;;;;;;;5074037;28;20458;-58
2022/10/07 09:16:54;;;;;;;5.67;3.83;;;;;;;;;;5088106;28;20493;-57
2022/10/07 09:19:26;;;;;;;6.00;3.30;;;;;;;;;;5074822;28;20476;-58
2022/10/07 09:21:57;;;;;;;5.95;3.35;;;;;;;;;;5090784;28;20491;-55
2022/10/07 09:24:27;;;;;;;8.60;3.23;;;;;;;;;;5072838;28;20225;-57
2022/10/07 09:26:55;;;;;;;6.63;3.50;;;;;;;;;;5091704;28;20967;-52
2022/10/07 09:29:25;;;;;;;5.63;3.77;;;;;;;;;;5091294;28;20447;-52
2022/10/07 09:31:52;;;;;;;4.50;3.43;;;;;;;;;;5082915;28;20483;-60
2022/10/07 09:34:21;;;;;;;4.40;3.70;;;;;;;;;;5074891;28;20490;-60
2022/10/07 09:37:06;;;;;;;3.37;3.17;;;;;;;;;;5096732;28;20932;-62
2022/10/07 09:39:35;;;;;;;7.40;3.37;;;;;;;;;;5112323;28;20441;-55
2022/10/07 09:42:03;;;;;;;8.83;3.33;;;;;;;;;;5092971;28;20452;-59
2022/10/07 09:44:30;;;;;;;5.80;3.50;;;;;;;;;;5081600;28;20447;-57
2022/10/07 09:46:58;;;;;;;6.07;3.80;;;;;;;;;;5072984;28;20443;-61
2022/10/07 09:49:35;;;;;;;6.60;3.20;;;;;;;;;;5091833;28;21006;-60
2022/10/07 09:52:03;;;;;;;4.63;2.80;;;;;;;;;;5101632;28;20812;-59
2022/10/07 09:54:31;;;;;;;4.33;2.93;;;;;;;;;;5078504;28;20499;-57
2022/10/07 09:57:02;;;;;;;5.50;3.27;;;;;;;;;;5076014;28;20486;-60
2022/10/07 09:59:31;;;;;;;5.07;3.00;;;;;;;;;;5092782;28;20447;-60
2022/10/07 10:01:59;;;;;;;5.50;3.20;;;;;;;;;;5091868;28;20450;-59
2022/10/07 10:04:30;;;;;;;4.77;3.67;;;;;;;;;;5085400;28;20458;-57
2022/10/07 10:06:59;;;;;;;5.27;2.93;;;;;;;;;;5074537;28;20447;-58
2022/10/07 10:09:26;;;;;;;5.93;3.00;;;;;;;;;;5080307;28;20469;-58
2022/10/07 10:12:07;;;;;;;2.70;2.50;;;;;;;;;;5087412;28;20471;-59
2022/10/07 10:14:41;;;;;;;3.40;2.87;;;;;;;;;;5086527;28;20443;-59
2022/10/07 10:17:20;;;;;;;7.77;3.40;;;;;;;;;;5089087;28;20462;-59
2022/10/07 10:19:47;;;;;;;7.50;3.27;;;;;;;;;;5072437;28;20538;-59
2022/10/07 10:22:23;;;;;;;3.00;2.80;;;;;;;;;;5072324;28;20826;-59
2022/10/07 10:27:38;;;;;;;3.47;2.53;;;;;;;;;;5074021;28;20461;-60
2022/10/07 10:30:06;;;;;;;2.73;2.53;;;;;;;;;;5079082;28;20461;-59
2022/10/07 10:32:50;;;;;;;3.00;2.57;;;;;;;;;;5077949;28;20493;-59
2022/10/07 10:35:20;;;;;;;3.97;2.60;;;;;;;;;;5112941;28;20452;-59
2022/10/07 10:37:56;;;;;;;5.50;3.40;;;;;;;;;;5102106;28;20442;-59
2022/10/07 10:40:28;;;;;;;5.17;2.50;;;;;;;;;;5071770;28;20469;-59
2022/10/07 10:42:58;;;;;;;2.87;2.63;;;;;;;;;;5080303;28;20957;-59
2022/10/07 10:45:32;;;;;;;5.73;2.50;;;;;;;;;;5079333;28;20447;-59
2022/10/07 10:48:12;;;;;;;6.20;3.00;;;;;;;;;;5078930;28;20463;-60
2022/10/07 10:50:42;;;;;;;4.33;3.00;;;;;;;;;;5105992;28;20446;-60
2022/10/07 10:53:17;;;;;;;2.70;2.30;;;;;;;;;;5082291;28;20482;-60
2022/10/07 10:55:53;;;;;;;4.40;3.17;;;;;;;;;;5071675;28;20791;-59
2022/10/07 10:58:27;;;;;;;3.53;2.43;;;;;;;;;;5072230;28;20439;-59
2022/10/07 11:00:58;;;;;;;5.30;3.30;;;;;;;;;;5073540;28;20458;-59
2022/10/07 11:03:34;;;;;;;2.80;2.60;;;;;;;;;;5071920;28;20548;-59
2022/10/07 11:06:01;;;;;;;4.40;2.17;;;;;;;;;;5071915;28;20822;-59
2022/10/07 11:08:31;;;;;;;5.03;2.50;;;;;;;;;;5071754;28;20456;-60
2022/10/07 11:10:59;;;;;;;3.50;2.50;;;;;;;;;;5071313;28;20447;-58
2022/10/07 11:13:30;;;;;;;2.20;2.00;;;;;;;;;;5091900;28;20826;-59
2022/10/07 11:16:00;;;;;;;3.30;2.40;;;;;;;;;;5095347;28;20533;-59
2022/10/07 11:18:29;;;;;;;3.03;2.10;;;;;;;;;;5103757;28;20465;-59
2022/10/07 11:20:58;;;;;;;4.27;2.13;;;;;;;;;;5092274;28;20537;-59
2022/10/07 11:23:28;;;;;;;1.73;1.63;;;;;;;;;;5095398;28;20446;-59
2022/10/07 11:25:57;;;;;;;4.43;2.10;;;;;;;;;;5095418;28;20932;-59
2022/10/07 11:28:26;;;;;;;3.63;2.30;;;;;;;;;;5095312;28;20450;-59
2022/10/07 11:30:57;;;;;;;3.40;2.67;;;;;;;;;;5095541;28;20454;-59
2022/10/07 11:33:30;;;;;;;2.70;1.80;;;;;;;;;;5095384;28;20486;-59
2022/10/07 11:35:59;;;;;;;2.40;1.93;;;;;;;;;;5095415;28;20439;-59
2022/10/07 11:38:30;;;;;;;2.67;1.90;;;;;;;;;;5095280;28;20546;-59
2022/10/07 11:40:58;;;;;;;2.30;2.07;;;;;;;;;;5095050;28;21009;-59
2022/10/07 11:43:27;;;;;;;2.23;1.93;;;;;;;;;;5095206;28;20450;-59
2022/10/07 11:45:57;;;;;;;1.67;1.57;;;;;;;;;;5095393;28;20533;-59
2022/10/07 11:48:26;;;;;;;1.67;1.57;;;;;;;;;;5095231;28;20805;-59
2022/10/07 11:50:55;;;;;;;3.60;1.87;;;;;;;;;;5095155;28;20500;-59
2022/10/07 11:53:24;;;;;;;4.23;2.20;;;;;;;;;;5094840;28;20567;-60
2022/10/07 11:55:55;;;;;;;5.03;2.20;;;;;;;;;;5095265;28;20518;-59
2022/10/07 11:58:24;;;;;;;4.23;1.93;;;;;;;;;;5095050;28;20533;-59
2022/10/07 12:00:51;;;;;;;2.20;1.40;;;;;;;;;;5095182;28;20496;-59
2022/10/07 12:03:37;;;;;;;2.50;1.50;;;;;;;;;;5095090;28;20445;-59
2022/10/07 12:06:10;;;;;;;2.27;1.70;;;;;;;;;;5094879;28;20446;-60
2022/10/07 12:08:37;;;;;;;5.40;2.10;;;;;;;;;;5095026;28;20482;-59
2022/10/07 12:11:23;;;;;;;6.60;2.30;;;;;;;;;;5094779;28;20482;-59
2022/10/07 12:13:51;;;;;;;2.10;1.90;;;;;;;;;;5094600;28;20482;-59
2022/10/07 12:16:33;;;;;;;4.47;2.23;;;;;;;;;;5094554;28;20451;-59
2022/10/07 12:19:15;;;;;;;1.90;1.63;;;;;;;;;;5093870;28;20612;-60
2022/10/07 12:22:01;;;;;;;3.40;2.07;;;;;;;;;;5094572;28;20446;-59
2022/10/07 12:24:30;;;;;;;4.57;1.70;;;;;;;;;;5093434;28;20535;-59
2022/10/07 12:26:58;;;;;;;5.23;1.60;;;;;;;;;;5094326;28;20478;-59
2022/10/07 12:29:36;;;;;;;2.67;1.30;;;;;;;;;;5094230;28;21007;-59
2022/10/07 12:32:03;;;;;;;6.33;2.20;;;;;;;;;;5094361;28;20537;-59
2022/10/07 12:34:42;;;;;;;4.67;1.97;;;;;;;;;;5094321;28;20454;-59
2022/10/07 12:37:28;;;;;;;2.33;1.43;;;;;;;;;;5094298;28;20442;-59
2022/10/07 12:39:56;;;;;;;2.30;1.27;;;;;;;;;;5094225;28;20438;-59
2022/10/07 12:42:23;;;;;;;3.43;1.20;;;;;;;;;;5094121;28;20446;-60
2022/10/07 12:44:51;;;;;;;3.30;1.50;;;;;;;;;;5094036;28;20533;-60
2022/10/07 12:47:21;;;;;;;2.50;1.47;;;;;;;;;;5094022;28;20885;-59
2022/10/07 12:49:50;;;;;;;3.63;1.20;;;;;;;;;;5093849;28;20449;-59
2022/10/07 12:52:19;;;;;;;3.23;1.53;;;;;;;;;;5093902;28;20545;-59
2022/10/07 12:54:49;;;;;;;1.80;1.50;;;;;;;;;;5093927;28;20451;-59
2022/10/07 12:57:21;;;;;;;3.40;1.50;;;;;;;;;;5093848;28;20446;-59
2022/10/07 12:59:52;;;;;;;7.20;1.70;;;;;;;;;;5093767;28;20447;-59
2022/10/07 13:02:40;;;;;;;4.17;1.30;;;;;;;;;;5093576;28;20477;-59
2022/10/07 13:05:26;;;;;;;3.27;1.40;;;;;;;;;;5093774;28;20520;-60
2022/10/07 13:08:25;;;;;;;3.57;1.50;;;;;;;;;;5093709;28;20447;-59
2022/10/07 13:11:10;;;;;;;4.73;1.40;;;;;;;;;;5093729;28;20801;-59
2022/10/07 13:13:41;;;;;;;5.50;1.70;;;;;;;;;;5079975;28;20492;-59
2022/10/07 13:16:10;;;;;;;3.23;1.13;;;;;;;;;;5093569;28;20458;-60
2022/10/07 13:18:41;;;;;;;1.60;1.10;;;;;;;;;;5093420;28;20446;-59
2022/10/07 13:21:21;;;;;;;5.27;1.23;;;;;;;;;;5093401;28;20446;-59
2022/10/07 13:23:51;;;;;;;3.00;1.47;;;;;;;;;;5093337;28;20492;-59
2022/10/07 13:26:20;;;;;;;2.00;1.07;;;;;;;;;;5093450;28;20450;-59
2022/10/07 13:28:50;;;;;;;3.30;1.40;;;;;;;;;;5093351;28;20575;-59
2022/10/07 13:31:19;;;;;;;2.90;1.17;;;;;;;;;;5093114;28;20442;-59
2022/10/07 13:33:46;;;;;;;3.40;1.10;;;;;;;;;;5093315;28;20792;-59
2022/10/07 13:36:15;;;;;;;5.40;2.33;;;;;;;;;;5093229;28;20538;-59
2022/10/07 13:38:42;;;;;;;3.00;1.53;;;;;;;;;;5093137;28;20455;-59
2022/10/07 13:41:15;;;;;;;3.03;2.33;;;;;;;;;;5093187;28;20456;-59
2022/10/07 13:43:43;;;;;;;2.90;1.30;;;;;;;;;;5092852;28;20450;-61
2022/10/07 13:46:13;;;;;;;1.47;1.20;;;;;;;;;;5092910;28;20801;-59
2022/10/07 13:48:42;;;;;;;4.17;1.43;;;;;;;;;;5093316;28;20448;-59
2022/10/07 13:51:14;;;;;;;1.50;1.00;;;;;;;;;;5093138;28;20446;-60
2022/10/07 13:53:41;;;;;;;2.30;1.40;;;;;;;;;;5092743;28;20478;-59
2022/10/07 13:56:14;;;;;;;1.40;1.10;;;;;;;;;;5092869;28;20554;-59
2022/10/07 13:58:40;;;;;;;2.77;1.23;;;;;;;;;;5092803;28;20529;-59
2022/10/07 14:01:08;;;;;;;1.67;1.20;;;;;;;;;;5092987;28;20453;-59
2022/10/07 14:03:56;;;;;;;2.63;1.13;;;;;;;;;;5092789;28;20446;-59
2022/10/07 14:06:36;;;;;;;4.50;1.10;;;;;;;;;;5092754;28;20534;-59
2022/10/07 14:09:03;;;;;;;2.33;1.20;;;;;;;;;;5092670;28;20450;-59
2022/10/07 14:11:30;;;;;;;1.23;1.10;;;;;;;;;;5092798;28;20537;-59
2022/10/07 14:13:58;;;;;;;3.10;1.40;;;;;;;;;;5092797;28;20478;-59
2022/10/07 14:16:25;;;;;;;3.20;1.40;;;;;;;;;;5092765;28;20791;-59
2022/10/07 14:18:53;;;;;;;3.23;1.37;;;;;;;;;;5092668;28;20594;-59
2022/10/07 14:21:20;;;;;;;2.03;1.20;;;;;;;;;;5092451;28;20446;-60
2022/10/07 14:23:47;;;;;;;1.17;1.07;;;;;;;;;;5092391;28;20471;-59
2022/10/07 14:26:16;;;;;;;5.40;1.60;;;;;;;;;;5092791;28;20508;-59
2022/10/07 14:28:43;;;;;;;2.43;1.30;;;;;;;;;;5092947;28;20447;-59
2022/10/07 14:37:03;;;;;;;3.50;1.20;;;;;;;;;;5092590;28;20441;-59
2022/10/07 14:39:43;;;;;;;1.77;1.40;;;;;;;;;;5092590;28;20797;-61
2022/10/07 14:42:11;;;;;;;3.90;1.73;;;;;;;;;;5092344;28;20847;-60
2022/10/07 14:44:42;;;;;;;2.53;1.30;;;;;;;;;;5092595;28;20845;-60
2022/10/07 14:47:12;;;;;;;3.53;1.77;;;;;;;;;;5094247;28;20450;-60
2022/10/07 14:49:41;;;;;;;2.13;1.03;;;;;;;;;;5096407;28;20451;-59
2022/10/07 14:52:10;;;;;;;5.20;1.23;;;;;;;;;;5096142;28;20485;-60
2022/10/07 14:54:37;;;;;;;2.83;1.30;;;;;;;;;;5096116;28;20474;-59
2022/10/07 14:57:04;;;;;;;3.43;1.70;;;;;;;;;;5096336;28;20472;-60
2022/10/07 14:59:31;;;;;;;4.07;2.30;;;;;;;;;;5096256;28;20645;-60
2022/10/07 15:01:59;;;;;;;3.90;1.47;;;;;;;;;;5096054;28;20442;-60
2022/10/07 15:04:26;;;;;;;29.23;2.23;;;;;;;;;;5096051;28;20454;-60
2022/10/07 15:06:54;;;;;;;1.33;1.23;;;;;;;;;;5096231;28;20483;-59
2022/10/07 15:09:21;;;;;;;3.07;1.23;;;;;;;;;;5095720;28;20447;-61
2022/10/07 15:11:48;;;;;;;1.63;1.53;;;;;;;;;;5096024;28;20456;-60
2022/10/07 15:14:15;;;;;;;3.20;1.47;;;;;;;;;;5095905;28;20490;-60